sensor_id;sensor_type;location;lat;lon;timestamp;P1;durP1;ratioP1;P2;durP2;ratioP2
54143;SDS011;40050;47.324;18.792;2024-02-23T00:00:29;4.04;;;2.30;;
54143;SDS011;40050;47.324;18.792;2024-02-23T00:02:23;3.16;;;1.70;;
54143;SDS011;40050;47.324;18.792;2024-02-23T00:04:25;3.55;;;2.00;;
54143;SDS011;40050;47.324;18.792;2024-02-23T00:06:25;3.06;;;1.90;;
54143;SDS011;40050;47.324;18.792;2024-02-23T00:08:26;4.15;;;1.90;;
54143;SDS011;40050;47.324;18.792;2024-02-23T00:10:27;3.75;;;2.10;;
54143;SDS011;40050;47.324;18.792;2024-02-23T00:12:27;2.86;;;1.90;;
54143;SDS011;40050;47.324;18.792;2024-02-23T00:14:31;2.96;;;1.90;;
54143;SDS011;40050;47.324;18.792;2024-02-23T00:16:37;3.46;;;1.80;;
54143;SDS011;40050;47.324;18.792;2024-02-23T00:18:32;3.06;;;2.20;;
54143;SDS011;40050;47.324;18.792;2024-02-23T00:20:34;3.26;;;2.10;;
54143;SDS011;40050;47.324;18.792;2024-02-23T00:22:37;3.26;;;2.20;;
54143;SDS011;40050;47.324;18.792;2024-02-23T00:24:38;3.06;;;1.80;;
54143;SDS011;40050;47.324;18.792;2024-02-23T00:26:39;4.54;;;2.10;;
54143;SDS011;40050;47.324;18.792;2024-02-23T00:28:40;3.85;;;2.10;;
54143;SDS011;40050;47.324;18.792;2024-02-23T00:30:44;3.16;;;2.00;;
54143;SDS011;40050;47.324;18.792;2024-02-23T00:32:42;3.75;;;2.00;;
54143;SDS011;40050;47.324;18.792;2024-02-23T00:34:43;3.05;;;2.10;;
54143;SDS011;40050;47.324;18.792;2024-02-23T00:36:44;3.74;;;2.20;;
54143;SDS011;40050;47.324;18.792;2024-02-23T00:38:45;3.93;;;2.10;;
54143;SDS011;40050;47.324;18.792;2024-02-23T00:40:45;2.74;;;2.20;;
54143;SDS011;40050;47.324;18.792;2024-02-23T00:42:46;3.33;;;2.29;;
54143;SDS011;40050;47.324;18.792;2024-02-23T00:44:48;4.99;;;2.69;;
54143;SDS011;40050;47.324;18.792;2024-02-23T00:46:48;3.72;;;2.59;;
54143;SDS011;40050;47.324;18.792;2024-02-23T00:48:49;4.00;;;2.49;;
54143;SDS011;40050;47.324;18.792;2024-02-23T00:50:51;4.10;;;2.39;;
54143;SDS011;40050;47.324;18.792;2024-02-23T00:52:52;4.09;;;2.49;;
54143;SDS011;40050;47.324;18.792;2024-02-23T00:54:53;4.57;;;2.59;;
54143;SDS011;40050;47.324;18.792;2024-02-23T00:56:54;3.79;;;2.59;;
54143;SDS011;40050;47.324;18.792;2024-02-23T00:58:55;3.89;;;2.39;;
54143;SDS011;40050;47.324;18.792;2024-02-23T01:00:56;3.88;;;2.59;;
54143;SDS011;40050;47.324;18.792;2024-02-23T01:02:57;4.27;;;2.29;;
54143;SDS011;40050;47.324;18.792;2024-02-23T01:04:58;5.04;;;2.39;;
54143;SDS011;40050;47.324;18.792;2024-02-23T01:06:59;4.17;;;2.49;;
54143;SDS011;40050;47.324;18.792;2024-02-23T01:09:00;3.29;;;2.19;;
54143;SDS011;40050;47.324;18.792;2024-02-23T01:11:01;5.03;;;2.29;;
54143;SDS011;40050;47.324;18.792;2024-02-23T01:13:02;4.15;;;2.39;;
54143;SDS011;40050;47.324;18.792;2024-02-23T01:15:03;3.38;;;2.39;;
54143;SDS011;40050;47.324;18.792;2024-02-23T01:17:04;3.77;;;2.79;;
54143;SDS011;40050;47.324;18.792;2024-02-23T01:19:05;3.86;;;2.69;;
54143;SDS011;40050;47.324;18.792;2024-02-23T01:21:05;4.63;;;2.69;;
54143;SDS011;40050;47.324;18.792;2024-02-23T01:23:06;4.34;;;2.69;;
54143;SDS011;40050;47.324;18.792;2024-02-23T01:25:07;3.95;;;2.79;;
54143;SDS011;40050;47.324;18.792;2024-02-23T01:27:08;4.33;;;2.29;;
54143;SDS011;40050;47.324;18.792;2024-02-23T01:29:09;3.27;;;1.99;;
54143;SDS011;40050;47.324;18.792;2024-02-23T01:31:11;3.75;;;2.29;;
54143;SDS011;40050;47.324;18.792;2024-02-23T01:33:11;3.74;;;2.49;;
54143;SDS011;40050;47.324;18.792;2024-02-23T01:35:12;4.70;;;2.58;;
54143;SDS011;40050;47.324;18.792;2024-02-23T01:37:13;3.64;;;2.29;;
54143;SDS011;40050;47.324;18.792;2024-02-23T01:39:14;4.49;;;2.58;;
54143;SDS011;40050;47.324;18.792;2024-02-23T01:41:15;3.62;;;2.38;;
54143;SDS011;40050;47.324;18.792;2024-02-23T01:43:15;3.52;;;2.48;;
54143;SDS011;40050;47.324;18.792;2024-02-23T01:45:17;5.14;;;2.38;;
54143;SDS011;40050;47.324;18.792;2024-02-23T01:47:18;3.03;;;2.18;;
54143;SDS011;40050;47.324;18.792;2024-02-23T01:49:20;4.64;;;2.48;;
54143;SDS011;40050;47.324;18.792;2024-02-23T01:51:20;4.43;;;2.57;;
54143;SDS011;40050;47.324;18.792;2024-02-23T01:53:21;4.62;;;2.87;;
54143;SDS011;40050;47.324;18.792;2024-02-23T01:55:23;5.54;;;2.97;;
54143;SDS011;40050;47.324;18.792;2024-02-23T01:57:24;4.42;;;2.77;;
54143;SDS011;40050;47.324;18.792;2024-02-23T01:59:26;3.94;;;2.77;;
54143;SDS011;40050;47.324;18.792;2024-02-23T02:01:27;3.75;;;2.37;;
54143;SDS011;40050;47.324;18.792;2024-02-23T02:03:28;4.21;;;2.67;;
54143;SDS011;40050;47.324;18.792;2024-02-23T02:05:28;4.11;;;2.57;;
54143;SDS011;40050;47.324;18.792;2024-02-23T02:07:30;4.03;;;2.37;;
54143;SDS011;40050;47.324;18.792;2024-02-23T02:09:31;4.22;;;2.17;;
54143;SDS011;40050;47.324;18.792;2024-02-23T02:11:32;4.88;;;2.37;;
54143;SDS011;40050;47.324;18.792;2024-02-23T02:13:36;3.85;;;2.77;;
54143;SDS011;40050;47.324;18.792;2024-02-23T02:15:37;4.14;;;2.28;;
54143;SDS011;40050;47.324;18.792;2024-02-23T02:17:38;5.09;;;2.47;;
54143;SDS011;40050;47.324;18.792;2024-02-23T02:19:44;5.30;;;2.38;;
54143;SDS011;40050;47.324;18.792;2024-02-23T02:21:40;5.02;;;2.58;;
54143;SDS011;40050;47.324;18.792;2024-02-23T02:23:41;3.88;;;2.48;;
54143;SDS011;40050;47.324;18.792;2024-02-23T02:25:45;3.41;;;2.28;;
54143;SDS011;40050;47.324;18.792;2024-02-23T02:27:45;3.41;;;2.58;;
54143;SDS011;40050;47.324;18.792;2024-02-23T02:29:49;3.40;;;2.57;;
54143;SDS011;40050;47.324;18.792;2024-02-23T02:31:47;5.67;;;2.67;;
54143;SDS011;40050;47.324;18.792;2024-02-23T02:33:48;4.72;;;2.57;;
54143;SDS011;40050;47.324;18.792;2024-02-23T02:35:49;4.43;;;2.57;;
54143;SDS011;40050;47.324;18.792;2024-02-23T02:37:50;4.71;;;2.57;;
54143;SDS011;40050;47.324;18.792;2024-02-23T02:39:51;3.57;;;2.37;;
54143;SDS011;40050;47.324;18.792;2024-02-23T02:41:55;3.94;;;2.67;;
54143;SDS011;40050;47.324;18.792;2024-02-23T02:43:56;3.19;;;2.47;;
54143;SDS011;40050;47.324;18.792;2024-02-23T02:45:57;5.33;;;2.67;;
54143;SDS011;40050;47.324;18.792;2024-02-23T02:47:59;4.87;;;2.77;;
54143;SDS011;40050;47.324;18.792;2024-02-23T02:49:58;5.05;;;2.57;;
54143;SDS011;40050;47.324;18.792;2024-02-23T02:51:59;3.82;;;2.37;;
54143;SDS011;40050;47.324;18.792;2024-02-23T02:54:00;4.46;;;2.66;;
54143;SDS011;40050;47.324;18.792;2024-02-23T02:56:05;5.58;;;2.66;;
54143;SDS011;40050;47.324;18.792;2024-02-23T02:58:02;3.25;;;2.27;;
54143;SDS011;40050;47.324;18.792;2024-02-23T03:00:09;4.65;;;2.86;;
54143;SDS011;40050;47.324;18.792;2024-02-23T03:02:07;5.10;;;2.66;;
54143;SDS011;40050;47.324;18.792;2024-02-23T03:04:08;4.35;;;2.76;;
54143;SDS011;40050;47.324;18.792;2024-02-23T03:06:21;3.98;;;2.56;;
54143;SDS011;40050;47.324;18.792;2024-02-23T03:08:34;3.98;;;2.95;;
54143;SDS011;40050;47.324;18.792;2024-02-23T03:10:35;4.44;;;2.56;;
54143;SDS011;40050;47.324;18.792;2024-02-23T03:12:36;4.26;;;2.86;;
54143;SDS011;40050;47.324;18.792;2024-02-23T03:14:37;4.44;;;2.76;;
54143;SDS011;40050;47.324;18.792;2024-02-23T03:16:45;5.26;;;2.85;;
54143;SDS011;40050;47.324;18.792;2024-02-23T03:18:46;5.45;;;3.64;;
54143;SDS011;40050;47.324;18.792;2024-02-23T03:20:47;5.10;;;2.76;;
54143;SDS011;40050;47.324;18.792;2024-02-23T03:22:48;5.45;;;3.15;;
54143;SDS011;40050;47.324;18.792;2024-02-23T03:24:49;6.00;;;3.15;;
54143;SDS011;40050;47.324;18.792;2024-02-23T03:26:50;5.28;;;3.05;;
54143;SDS011;40050;47.324;18.792;2024-02-23T03:28:51;5.57;;;3.45;;
54143;SDS011;40050;47.324;18.792;2024-02-23T03:30:52;5.29;;;3.45;;
54143;SDS011;40050;47.324;18.792;2024-02-23T03:32:52;5.56;;;3.45;;
54143;SDS011;40050;47.324;18.792;2024-02-23T03:34:53;4.92;;;3.35;;
54143;SDS011;40050;47.324;18.792;2024-02-23T03:36:57;5.37;;;3.25;;
54143;SDS011;40050;47.324;18.792;2024-02-23T03:38:58;5.74;;;3.15;;
54143;SDS011;40050;47.324;18.792;2024-02-23T03:41:08;4.66;;;3.06;;
54143;SDS011;40050;47.324;18.792;2024-02-23T03:43:09;5.03;;;3.06;;
54143;SDS011;40050;47.324;18.792;2024-02-23T03:45:10;4.93;;;3.06;;
54143;SDS011;40050;47.324;18.792;2024-02-23T03:47:12;4.37;;;2.86;;
54143;SDS011;40050;47.324;18.792;2024-02-23T03:49:26;5.88;;;3.06;;
54143;SDS011;40050;47.324;18.792;2024-02-23T03:51:47;4.77;;;2.57;;
54143;SDS011;40050;47.324;18.792;2024-02-23T03:53:42;4.58;;;3.06;;
54143;SDS011;40050;47.324;18.792;2024-02-23T03:55:42;4.02;;;2.96;;
54143;SDS011;40050;47.324;18.792;2024-02-23T03:57:43;4.79;;;2.77;;
54143;SDS011;40050;47.324;18.792;2024-02-23T03:59:54;5.43;;;3.16;;
54143;SDS011;40050;47.324;18.792;2024-02-23T04:01:45;3.84;;;2.57;;
54143;SDS011;40050;47.324;18.792;2024-02-23T04:03:46;5.45;;;2.57;;
54143;SDS011;40050;47.324;18.792;2024-02-23T04:05:47;4.97;;;2.77;;
54143;SDS011;40050;47.324;18.792;2024-02-23T04:07:48;6.01;;;2.87;;
54143;SDS011;40050;47.324;18.792;2024-02-23T04:09:51;3.84;;;2.86;;
54143;SDS011;40050;47.324;18.792;2024-02-23T04:11:51;4.50;;;2.67;;
54143;SDS011;40050;47.324;18.792;2024-02-23T04:13:52;4.68;;;2.86;;
54143;SDS011;40050;47.324;18.792;2024-02-23T04:15:54;3.29;;;2.57;;
54143;SDS011;40050;47.324;18.792;2024-02-23T04:17:55;4.30;;;3.06;;
54143;SDS011;40050;47.324;18.792;2024-02-23T04:20:35;4.77;;;2.77;;
54143;SDS011;40050;47.324;18.792;2024-02-23T04:22:28;6.84;;;3.36;;
54143;SDS011;40050;47.324;18.792;2024-02-23T04:24:29;4.58;;;2.86;;
54143;SDS011;40050;47.324;18.792;2024-02-23T04:26:30;4.76;;;3.06;;
54143;SDS011;40050;47.324;18.792;2024-02-23T04:28:31;4.88;;;2.77;;
54143;SDS011;40050;47.324;18.792;2024-02-23T04:30:33;5.16;;;2.87;;
54143;SDS011;40050;47.324;18.792;2024-02-23T04:32:34;3.58;;;2.57;;
54143;SDS011;40050;47.324;18.792;2024-02-23T04:34:40;3.58;;;2.28;;
54143;SDS011;40050;47.324;18.792;2024-02-23T04:36:36;5.09;;;2.47;;
54143;SDS011;40050;47.324;18.792;2024-02-23T04:38:37;3.01;;;2.27;;
54143;SDS011;40050;47.324;18.792;2024-02-23T04:42:40;2.94;;;2.28;;
54143;SDS011;40050;47.324;18.792;2024-02-23T04:44:41;3.31;;;2.18;;
54143;SDS011;40050;47.324;18.792;2024-02-23T04:46:42;3.59;;;2.18;;
54143;SDS011;40050;47.324;18.792;2024-02-23T04:48:43;5.77;;;2.28;;
54143;SDS011;40050;47.324;18.792;2024-02-23T04:50:44;2.56;;;1.88;;
54143;SDS011;40050;47.324;18.792;2024-02-23T04:52:45;2.56;;;1.68;;
54143;SDS011;40050;47.324;18.792;2024-02-23T04:54:46;2.66;;;1.69;;
54143;SDS011;40050;47.324;18.792;2024-02-23T04:56:49;4.36;;;1.88;;
54143;SDS011;40050;47.324;18.792;2024-02-23T04:58:54;3.33;;;1.59;;
54143;SDS011;40050;47.324;18.792;2024-02-23T05:00:51;3.90;;;1.78;;
54143;SDS011;40050;47.324;18.792;2024-02-23T05:02:52;3.05;;;1.69;;
54143;SDS011;40050;47.324;18.792;2024-02-23T05:04:53;2.57;;;1.59;;
54143;SDS011;40050;47.324;18.792;2024-02-23T05:06:54;1.72;;;1.39;;
54143;SDS011;40050;47.324;18.792;2024-02-23T05:08:54;2.48;;;1.39;;
54143;SDS011;40050;47.324;18.792;2024-02-23T05:10:58;3.82;;;1.49;;
54143;SDS011;40050;47.324;18.792;2024-02-23T05:12:57;1.92;;;1.19;;
54143;SDS011;40050;47.324;18.792;2024-02-23T05:14:57;1.62;;;1.19;;
54143;SDS011;40050;47.324;18.792;2024-02-23T05:17:21;2.01;;;1.29;;
54143;SDS011;40050;47.324;18.792;2024-02-23T05:19:16;2.77;;;1.39;;
54143;SDS011;40050;47.324;18.792;2024-02-23T05:21:17;2.58;;;1.39;;
54143;SDS011;40050;47.324;18.792;2024-02-23T05:23:18;4.30;;;1.59;;
54143;SDS011;40050;47.324;18.792;2024-02-23T05:25:21;2.68;;;1.39;;
54143;SDS011;40050;47.324;18.792;2024-02-23T05:27:21;1.53;;;1.09;;
54143;SDS011;40050;47.324;18.792;2024-02-23T05:29:22;1.63;;;1.09;;
54143;SDS011;40050;47.324;18.792;2024-02-23T05:31:42;2.30;;;1.09;;
54143;SDS011;40050;47.324;18.792;2024-02-23T05:33:24;1.34;;;0.89;;
54143;SDS011;40050;47.324;18.792;2024-02-23T05:35:25;2.00;;;1.09;;
54143;SDS011;40050;47.324;18.792;2024-02-23T05:37:26;1.52;;;1.09;;
54143;SDS011;40050;47.324;18.792;2024-02-23T05:39:27;1.52;;;0.89;;
54143;SDS011;40050;47.324;18.792;2024-02-23T05:41:28;1.24;;;1.09;;
54143;SDS011;40050;47.324;18.792;2024-02-23T05:43:29;2.28;;;0.89;;
54143;SDS011;40050;47.324;18.792;2024-02-23T05:45:30;2.84;;;2.28;;
54143;SDS011;40050;47.324;18.792;2024-02-23T05:47:30;1.52;;;1.09;;
54143;SDS011;40050;47.324;18.792;2024-02-23T05:49:32;2.84;;;1.39;;
54143;SDS011;40050;47.324;18.792;2024-02-23T05:51:33;2.65;;;1.49;;
54143;SDS011;40050;47.324;18.792;2024-02-23T05:53:34;3.01;;;1.78;;
54143;SDS011;40050;47.324;18.792;2024-02-23T05:55:35;2.25;;;1.48;;
54143;SDS011;40050;47.324;18.792;2024-02-23T05:57:36;3.93;;;2.07;;
54143;SDS011;40050;47.324;18.792;2024-02-23T05:59:37;3.18;;;2.07;;
54143;SDS011;40050;47.324;18.792;2024-02-23T06:01:38;2.34;;;1.58;;
54143;SDS011;40050;47.324;18.792;2024-02-23T06:03:38;2.61;;;1.87;;
54143;SDS011;40050;47.324;18.792;2024-02-23T06:05:39;2.98;;;1.87;;
54143;SDS011;40050;47.324;18.792;2024-02-23T06:07:40;2.68;;;1.77;;
54143;SDS011;40050;47.324;18.792;2024-02-23T06:09:42;3.70;;;1.67;;
54143;SDS011;40050;47.324;18.792;2024-02-23T06:11:42;2.13;;;1.77;;
54143;SDS011;40050;47.324;18.792;2024-02-23T06:13:43;2.95;;;1.97;;
54143;SDS011;40050;47.324;18.792;2024-02-23T06:15:44;3.41;;;1.97;;
54143;SDS011;40050;47.324;18.792;2024-02-23T06:17:45;3.40;;;2.26;;
54143;SDS011;40050;47.324;18.792;2024-02-23T06:19:46;3.58;;;2.06;;
54143;SDS011;40050;47.324;18.792;2024-02-23T06:21:48;3.22;;;2.06;;
54143;SDS011;40050;47.324;18.792;2024-02-23T06:23:48;5.31;;;2.55;;
54143;SDS011;40050;47.324;18.792;2024-02-23T06:25:49;2.75;;;1.96;;
54143;SDS011;40050;47.324;18.792;2024-02-23T06:27:50;4.58;;;2.55;;
54143;SDS011;40050;47.324;18.792;2024-02-23T06:29:51;3.49;;;2.65;;
54143;SDS011;40050;47.324;18.792;2024-02-23T06:31:52;4.22;;;2.85;;
54143;SDS011;40050;47.324;18.792;2024-02-23T06:33:56;4.95;;;3.34;;
54143;SDS011;40050;47.324;18.792;2024-02-23T06:35:55;5.21;;;3.73;;
54143;SDS011;40050;47.324;18.792;2024-02-23T06:37:56;5.86;;;3.92;;
54143;SDS011;40050;47.324;18.792;2024-02-23T06:39:57;5.57;;;3.92;;
54143;SDS011;40050;47.324;18.792;2024-02-23T06:41:58;5.46;;;3.62;;
54143;SDS011;40050;47.324;18.792;2024-02-23T06:43:59;4.02;;;3.04;;
54143;SDS011;40050;47.324;18.792;2024-02-23T06:46:03;3.82;;;2.94;;
54143;SDS011;40050;47.324;18.792;2024-02-23T06:48:01;4.83;;;3.04;;
54143;SDS011;40050;47.324;18.792;2024-02-23T06:50:02;4.28;;;2.84;;
54143;SDS011;40050;47.324;18.792;2024-02-23T06:52:03;3.10;;;2.74;;
54143;SDS011;40050;47.324;18.792;2024-02-23T06:54:04;5.00;;;3.42;;
54143;SDS011;40050;47.324;18.792;2024-02-23T06:56:07;4.80;;;2.93;;
54143;SDS011;40050;47.324;18.792;2024-02-23T06:58:08;4.71;;;2.83;;
54143;SDS011;40050;47.324;18.792;2024-02-23T07:00:09;3.98;;;2.83;;
54143;SDS011;40050;47.324;18.792;2024-02-23T07:02:22;4.34;;;3.03;;
54143;SDS011;40050;47.324;18.792;2024-02-23T07:04:23;5.31;;;3.22;;
54143;SDS011;40050;47.324;18.792;2024-02-23T07:06:24;5.24;;;3.12;;
54143;SDS011;40050;47.324;18.792;2024-02-23T07:08:25;3.88;;;2.83;;
54143;SDS011;40050;47.324;18.792;2024-02-23T07:10:26;6.52;;;3.71;;
54143;SDS011;40050;47.324;18.792;2024-02-23T07:12:27;5.61;;;3.22;;
54143;SDS011;40050;47.324;18.792;2024-02-23T07:14:28;4.36;;;3.03;;
54143;SDS011;40050;47.324;18.792;2024-02-23T07:16:29;4.90;;;3.03;;
54143;SDS011;40050;47.324;18.792;2024-02-23T07:18:30;4.00;;;3.13;;
54143;SDS011;40050;47.324;18.792;2024-02-23T07:20:31;5.54;;;3.72;;
54143;SDS011;40050;47.324;18.792;2024-02-23T07:22:32;4.36;;;3.23;;
54143;SDS011;40050;47.324;18.792;2024-02-23T07:24:33;4.45;;;3.23;;
54143;SDS011;40050;47.324;18.792;2024-02-23T07:26:34;5.74;;;3.23;;
54143;SDS011;40050;47.324;18.792;2024-02-23T07:28:35;4.65;;;3.33;;
54143;SDS011;40050;47.324;18.792;2024-02-23T07:30:37;6.48;;;3.72;;
54143;SDS011;40050;47.324;18.792;2024-02-23T07:32:38;5.02;;;3.62;;
54143;SDS011;40050;47.324;18.792;2024-02-23T07:34:39;6.20;;;3.72;;
54143;SDS011;40050;47.324;18.792;2024-02-23T07:36:45;6.84;;;4.02;;
54143;SDS011;40050;47.324;18.792;2024-02-23T07:38:46;6.57;;;3.92;;
54143;SDS011;40050;47.324;18.792;2024-02-23T07:40:46;6.56;;;3.92;;
54143;SDS011;40050;47.324;18.792;2024-02-23T07:42:47;6.47;;;3.92;;
54143;SDS011;40050;47.324;18.792;2024-02-23T07:44:48;6.55;;;4.11;;
54143;SDS011;40050;47.324;18.792;2024-02-23T07:46:49;7.00;;;4.30;;
54143;SDS011;40050;47.324;18.792;2024-02-23T07:48:50;7.91;;;4.89;;
54143;SDS011;40050;47.324;18.792;2024-02-23T07:50:51;7.91;;;4.79;;
54143;SDS011;40050;47.324;18.792;2024-02-23T07:52:52;6.64;;;4.60;;
54143;SDS011;40050;47.324;18.792;2024-02-23T07:54:53;10.10;;;5.28;;
54143;SDS011;40050;47.324;18.792;2024-02-23T07:56:54;10.37;;;5.87;;
54143;SDS011;40050;47.324;18.792;2024-02-23T07:58:55;12.01;;;6.56;;
54143;SDS011;40050;47.324;18.792;2024-02-23T08:00:56;10.81;;;6.36;;
54143;SDS011;40050;47.324;18.792;2024-02-23T08:02:57;12.73;;;7.44;;
54143;SDS011;40050;47.324;18.792;2024-02-23T08:04:58;14.74;;;9.30;;
54143;SDS011;40050;47.324;18.792;2024-02-23T08:06:59;18.39;;;10.67;;
54143;SDS011;40050;47.324;18.792;2024-02-23T08:09:00;12.11;;;8.12;;
54143;SDS011;40050;47.324;18.792;2024-02-23T08:11:01;9.28;;;5.58;;
54143;SDS011;40050;47.324;18.792;2024-02-23T08:13:02;7.09;;;4.79;;
54143;SDS011;40050;47.324;18.792;2024-02-23T08:15:03;8.19;;;5.48;;
54143;SDS011;40050;47.324;18.792;2024-02-23T08:17:03;6.82;;;4.11;;
54143;SDS011;40050;47.324;18.792;2024-02-23T08:19:04;6.90;;;4.40;;
54143;SDS011;40050;47.324;18.792;2024-02-23T08:21:05;5.81;;;3.91;;
54143;SDS011;40050;47.324;18.792;2024-02-23T08:23:06;8.50;;;5.49;;
54143;SDS011;40050;47.324;18.792;2024-02-23T08:25:07;6.29;;;4.70;;
54143;SDS011;40050;47.324;18.792;2024-02-23T08:38:02;4.09;;;3.13;;
54143;SDS011;40050;47.324;18.792;2024-02-23T08:40:03;5.18;;;3.81;;
54143;SDS011;40050;47.324;18.792;2024-02-23T08:42:03;3.82;;;3.23;;
54143;SDS011;40050;47.324;18.792;2024-02-23T08:44:04;5.00;;;3.03;;
54143;SDS011;40050;47.324;18.792;2024-02-23T08:46:05;4.83;;;2.94;;
54143;SDS011;40050;47.324;18.792;2024-02-23T08:48:06;7.31;;;3.53;;
54143;SDS011;40050;47.324;18.792;2024-02-23T08:50:08;5.13;;;3.73;;
54143;SDS011;40050;47.324;18.792;2024-02-23T08:52:09;6.23;;;3.73;;
54143;SDS011;40050;47.324;18.792;2024-02-23T08:54:10;4.14;;;2.75;;
54143;SDS011;40050;47.324;18.792;2024-02-23T08:56:11;4.50;;;2.95;;
54143;SDS011;40050;47.324;18.792;2024-02-23T08:58:12;5.33;;;3.24;;
54143;SDS011;40050;47.324;18.792;2024-02-23T09:00:13;5.14;;;2.94;;
54143;SDS011;40050;47.324;18.792;2024-02-23T09:02:13;4.86;;;2.94;;
54143;SDS011;40050;47.324;18.792;2024-02-23T09:04:14;6.17;;;3.54;;
54143;SDS011;40050;47.324;18.792;2024-02-23T09:06:16;5.79;;;3.34;;
54143;SDS011;40050;47.324;18.792;2024-02-23T09:08:29;5.06;;;3.64;;
54143;SDS011;40050;47.324;18.792;2024-02-23T09:10:30;3.77;;;3.04;;
54143;SDS011;40050;47.324;18.792;2024-02-23T09:12:31;3.86;;;2.75;;
54143;SDS011;40050;47.324;18.792;2024-02-23T09:14:32;5.44;;;2.95;;
54143;SDS011;40050;47.324;18.792;2024-02-23T09:16:42;5.72;;;3.24;;
54143;SDS011;40050;47.324;18.792;2024-02-23T09:18:43;11.46;;;7.58;;
54143;SDS011;40050;47.324;18.792;2024-02-23T09:20:44;11.28;;;6.20;;
54143;SDS011;40050;47.324;18.792;2024-02-23T09:22:46;5.44;;;4.03;;
54143;SDS011;40050;47.324;18.792;2024-02-23T09:24:46;5.37;;;3.35;;
54143;SDS011;40050;47.324;18.792;2024-02-23T09:26:47;5.48;;;2.96;;
54143;SDS011;40050;47.324;18.792;2024-02-23T09:28:48;4.83;;;2.46;;
54143;SDS011;40050;47.324;18.792;2024-02-23T09:30:49;4.82;;;2.46;;
54143;SDS011;40050;47.324;18.792;2024-02-23T09:32:53;4.84;;;2.37;;
54143;SDS011;40050;47.324;18.792;2024-02-23T09:34:52;3.25;;;2.07;;
54143;SDS011;40050;47.324;18.792;2024-02-23T09:36:52;4.56;;;2.56;;
54143;SDS011;40050;47.324;18.792;2024-02-23T09:38:53;5.58;;;2.66;;
54143;SDS011;40050;47.324;18.792;2024-02-23T09:40:54;4.01;;;2.57;;
54143;SDS011;40050;47.324;18.792;2024-02-23T09:42:56;3.83;;;2.47;;
54143;SDS011;40050;47.324;18.792;2024-02-23T09:45:03;4.02;;;2.47;;
54143;SDS011;40050;47.324;18.792;2024-02-23T09:47:04;3.18;;;2.27;;
54143;SDS011;40050;47.324;18.792;2024-02-23T09:49:05;4.23;;;2.67;;
54143;SDS011;40050;47.324;18.792;2024-02-23T09:51:08;6.19;;;3.46;;
54143;SDS011;40050;47.324;18.792;2024-02-23T09:53:09;5.17;;;2.77;;
54143;SDS011;40050;47.324;18.792;2024-02-23T09:55:12;3.95;;;2.37;;
54143;SDS011;40050;47.324;18.792;2024-02-23T09:57:11;4.13;;;2.27;;
54143;SDS011;40050;47.324;18.792;2024-02-23T09:59:19;3.47;;;2.17;;
54143;SDS011;40050;47.324;18.792;2024-02-23T10:01:32;5.07;;;2.67;;
54143;SDS011;40050;47.324;18.792;2024-02-23T10:03:22;6.48;;;3.26;;
54143;SDS011;40050;47.324;18.792;2024-02-23T10:05:23;5.83;;;2.87;;
54143;SDS011;40050;47.324;18.792;2024-02-23T10:09:54;6.20;;;3.26;;
54143;SDS011;40050;47.324;18.792;2024-02-23T10:11:53;5.27;;;3.46;;
54143;SDS011;40050;47.324;18.792;2024-02-23T10:13:57;5.36;;;3.46;;
54143;SDS011;40050;47.324;18.792;2024-02-23T10:15:52;6.57;;;3.86;;
54143;SDS011;40050;47.324;18.792;2024-02-23T10:32:50;5.25;;;2.96;;
54143;SDS011;40050;47.324;18.792;2024-02-23T10:34:51;4.41;;;2.87;;
54143;SDS011;40050;47.324;18.792;2024-02-23T10:36:53;4.41;;;2.57;;
54143;SDS011;40050;47.324;18.792;2024-02-23T10:43:12;4.34;;;2.47;;
54143;SDS011;40050;47.324;18.792;2024-02-23T10:45:12;3.40;;;2.18;;
54143;SDS011;40050;47.324;18.792;2024-02-23T10:47:13;4.63;;;2.57;;
54143;SDS011;40050;47.324;18.792;2024-02-23T10:49:15;5.96;;;2.28;;
54143;SDS011;40050;47.324;18.792;2024-02-23T10:51:16;5.77;;;2.18;;
54143;SDS011;40050;47.324;18.792;2024-02-23T10:53:17;3.70;;;2.08;;
54143;SDS011;40050;47.324;18.792;2024-02-23T10:55:23;2.94;;;1.98;;
54143;SDS011;40050;47.324;18.792;2024-02-23T10:57:24;3.70;;;2.28;;
54143;SDS011;40050;47.324;18.792;2024-02-23T10:59:25;5.50;;;2.68;;
54143;SDS011;40050;47.324;18.792;2024-02-23T11:01:38;4.93;;;2.68;;
54143;SDS011;40050;47.324;18.792;2024-02-23T11:03:41;4.65;;;2.48;;
54143;SDS011;40050;47.324;18.792;2024-02-23T11:05:40;4.08;;;2.18;;
54143;SDS011;40050;47.324;18.792;2024-02-23T11:07:47;3.70;;;2.18;;
54143;SDS011;40050;47.324;18.792;2024-02-23T11:09:52;3.41;;;1.98;;
54143;SDS011;40050;47.324;18.792;2024-02-23T11:11:56;4.17;;;2.08;;
54143;SDS011;40050;47.324;18.792;2024-02-23T11:13:48;4.27;;;2.38;;
54143;SDS011;40050;47.324;18.792;2024-02-23T11:16:03;4.66;;;2.78;;
54143;SDS011;40050;47.324;18.792;2024-02-23T11:17:58;6.08;;;2.58;;
54143;SDS011;40050;47.324;18.792;2024-02-23T11:20:06;4.56;;;2.68;;
54143;SDS011;40050;47.324;18.792;2024-02-23T11:22:10;5.12;;;3.07;;
54143;SDS011;40050;47.324;18.792;2024-02-23T11:24:15;4.27;;;2.08;;
54143;SDS011;40050;47.324;18.792;2024-02-23T11:26:28;3.52;;;2.28;;
54143;SDS011;40050;47.324;18.792;2024-02-23T11:28:29;4.37;;;2.28;;
54143;SDS011;40050;47.324;18.792;2024-02-23T11:30:31;4.18;;;2.38;;
54143;SDS011;40050;47.324;18.792;2024-02-23T11:32:38;5.99;;;2.28;;
54143;SDS011;40050;47.324;18.792;2024-02-23T11:34:32;4.09;;;2.48;;
54143;SDS011;40050;47.324;18.792;2024-02-23T11:36:40;3.51;;;2.08;;
54143;SDS011;40050;47.324;18.792;2024-02-23T11:38:41;4.08;;;3.17;;
54143;SDS011;40050;47.324;18.792;2024-02-23T11:40:43;4.56;;;2.88;;
54143;SDS011;40050;47.324;18.792;2024-02-23T11:42:45;6.55;;;3.47;;
54143;SDS011;40050;47.324;18.792;2024-02-23T11:44:46;4.10;;;2.78;;
54143;SDS011;40050;47.324;18.792;2024-02-23T11:46:47;4.67;;;3.17;;
54143;SDS011;40050;47.324;18.792;2024-02-23T11:48:49;5.04;;;3.08;;
54143;SDS011;40050;47.324;18.792;2024-02-23T11:50:49;5.34;;;3.08;;
54143;SDS011;40050;47.324;18.792;2024-02-23T11:52:51;5.24;;;3.08;;
54143;SDS011;40050;47.324;18.792;2024-02-23T11:54:52;5.99;;;2.48;;
54143;SDS011;40050;47.324;18.792;2024-02-23T11:56:53;4.19;;;2.38;;
54143;SDS011;40050;47.324;18.792;2024-02-23T12:00:57;4.75;;;2.78;;
54143;SDS011;40050;47.324;18.792;2024-02-23T12:02:58;5.51;;;2.78;;
54143;SDS011;40050;47.324;18.792;2024-02-23T12:05:00;5.14;;;3.37;;
54143;SDS011;40050;47.324;18.792;2024-02-23T12:07:01;5.06;;;3.08;;
54143;SDS011;40050;47.324;18.792;2024-02-23T12:09:02;6.86;;;3.67;;
54143;SDS011;40050;47.324;18.792;2024-02-23T12:11:06;5.52;;;3.08;;
54143;SDS011;40050;47.324;18.792;2024-02-23T12:13:04;4.56;;;2.88;;
54143;SDS011;40050;47.324;18.792;2024-02-23T12:15:08;4.76;;;2.78;;
54143;SDS011;40050;47.324;18.792;2024-02-23T12:17:10;4.66;;;2.88;;
54143;SDS011;40050;47.324;18.792;2024-02-23T12:19:11;4.09;;;2.88;;
54143;SDS011;40050;47.324;18.792;2024-02-23T12:21:12;4.47;;;2.97;;
54143;SDS011;40050;47.324;18.792;2024-02-23T12:23:13;5.22;;;3.07;;
54143;SDS011;40050;47.324;18.792;2024-02-23T12:25:14;5.88;;;2.97;;
54143;SDS011;40050;47.324;18.792;2024-02-23T12:27:18;4.46;;;3.07;;
54143;SDS011;40050;47.324;18.792;2024-02-23T12:29:16;5.59;;;3.57;;
54143;SDS011;40050;47.324;18.792;2024-02-23T12:31:23;5.40;;;3.77;;
54143;SDS011;40050;47.324;18.792;2024-02-23T12:33:18;5.68;;;3.86;;
54143;SDS011;40050;47.324;18.792;2024-02-23T12:35:19;6.15;;;4.06;;
54143;SDS011;40050;47.324;18.792;2024-02-23T12:37:20;5.85;;;3.76;;